createdAt,value
2023-01-17T00:02:08.802Z,76.96
2023-01-17T00:04:35.513Z,76.65
2023-01-17T00:07:02.150Z,76.01
2023-01-17T00:09:28.800Z,75.60
2023-01-17T00:11:55.708Z,74.04
2023-01-17T00:14:22.336Z,74.02
2023-01-17T00:16:48.967Z,73.00
2023-01-17T00:19:15.568Z,73.82
2023-01-17T00:21:42.204Z,72.56
2023-01-17T00:24:08.836Z,72.86
2023-01-17T00:26:35.487Z,74.17
2023-01-17T00:29:02.136Z,73.98
2023-01-17T00:31:28.787Z,73.02
2023-01-17T00:33:55.485Z,73.44
2023-01-17T00:36:22.123Z,73.99
2023-01-17T00:38:48.730Z,73.74
2023-01-17T00:41:15.431Z,73.96
2023-01-17T00:43:42.063Z,72.66
2023-01-17T00:46:08.707Z,72.81
2023-01-17T00:48:35.355Z,73.60
2023-01-17T00:51:03.196Z,73.37
2023-01-17T00:53:30.072Z,73.58
2023-01-17T00:56:00.089Z,73.18
2023-01-17T00:58:26.731Z,73.11
2023-01-17T01:00:53.473Z,73.62
2023-01-17T01:03:20.145Z,72.80
2023-01-17T01:05:46.778Z,73.37
2023-01-17T01:08:24.208Z,73.33
2023-01-17T01:10:50.832Z,73.99
2023-01-17T01:13:17.456Z,74.20
2023-01-17T01:15:44.094Z,73.46
2023-01-17T01:18:11.382Z,73.82
2023-01-17T01:20:38.021Z,74.36
2023-01-17T01:23:07.661Z,74.10
2023-01-17T01:25:35.682Z,74.28
2023-01-17T01:28:06.348Z,73.57
2023-01-17T01:30:33.034Z,73.94
2023-01-17T01:32:59.670Z,73.51
2023-01-17T01:35:26.436Z,74.69
2023-01-17T01:37:53.085Z,74.57
2023-01-17T01:40:19.721Z,73.34
2023-01-17T01:42:53.075Z,73.74
2023-01-17T01:45:22.200Z,74.18
2023-01-17T01:47:48.933Z,72.74
2023-01-17T01:50:15.602Z,73.33
2023-01-17T01:52:45.544Z,74.56
2023-01-17T01:55:15.852Z,77.32
2023-01-17T01:57:43.813Z,78.29
2023-01-17T02:00:15.934Z,78.79
2023-01-17T02:02:42.980Z,78.98
2023-01-17T02:05:09.897Z,78.44
2023-01-17T02:08:04.063Z,77.95
2023-01-17T02:10:38.082Z,77.19
2023-01-17T02:13:04.890Z,76.97
2023-01-17T02:15:50.915Z,76.66
2023-01-17T02:18:26.411Z,75.17
2023-01-17T02:21:14.085Z,75.19
2023-01-17T02:23:53.636Z,74.67
2023-01-17T02:26:31.066Z,74.32
2023-01-17T02:29:17.452Z,74.23
2023-01-17T02:31:47.521Z,74.26
2023-01-17T02:34:46.132Z,74.25
2023-01-17T02:37:19.576Z,74.55
2023-01-17T02:39:51.528Z,73.73
2023-01-17T02:42:19.041Z,73.35
2023-01-17T02:44:45.695Z,74.13
2023-01-17T02:47:28.429Z,74.77
2023-01-17T02:50:02.227Z,74.14
2023-01-17T02:52:52.461Z,73.58
2023-01-17T02:55:27.664Z,73.33
2023-01-17T02:57:54.180Z,73.78
2023-01-17T03:00:22.017Z,74.22
2023-01-17T03:03:07.884Z,73.63
2023-01-17T03:05:39.311Z,73.46
2023-01-17T03:08:05.957Z,72.93
2023-01-17T03:10:32.866Z,73.92
2023-01-17T03:12:59.936Z,73.03
2023-01-17T03:15:26.660Z,73.81
2023-01-17T03:17:53.760Z,72.96
2023-01-17T03:20:22.475Z,72.67
2023-01-17T03:22:49.448Z,72.95
2023-01-17T03:25:16.538Z,73.19
2023-01-17T03:27:43.174Z,73.15
2023-01-17T03:30:10.229Z,73.42
2023-01-17T03:32:36.872Z,73.80
2023-01-17T03:35:03.555Z,73.18
2023-01-17T03:37:30.179Z,73.30
2023-01-17T03:39:56.798Z,73.47
2023-01-17T03:42:23.423Z,72.94
2023-01-17T03:44:50.090Z,72.63
2023-01-17T03:47:16.701Z,72.94
2023-01-17T03:49:43.327Z,73.51
2023-01-17T03:52:10.006Z,72.96
2023-01-17T03:54:36.611Z,73.74
2023-01-17T03:57:03.239Z,73.00
2023-01-17T03:59:29.878Z,73.28
2023-01-17T04:01:56.558Z,73.40
2023-01-17T04:04:23.238Z,73.38
2023-01-17T04:06:49.860Z,72.93
2023-01-17T04:09:16.486Z,72.63
2023-01-17T04:11:43.127Z,72.80
2023-01-17T04:14:09.756Z,73.42
2023-01-17T04:16:36.502Z,73.06
2023-01-17T04:19:03.129Z,73.64
2023-01-17T04:21:29.771Z,73.33
2023-01-17T04:23:56.429Z,72.86
2023-01-17T04:26:23.133Z,72.11
2023-01-17T04:28:49.772Z,72.29
2023-01-17T04:31:16.787Z,72.46
2023-01-17T04:33:43.573Z,72.18
2023-01-17T04:36:10.206Z,72.75
2023-01-17T04:38:37.337Z,72.47
2023-01-17T04:41:03.952Z,72.74
2023-01-17T04:43:30.617Z,73.00
2023-01-17T04:45:57.509Z,71.63
2023-01-17T04:48:24.219Z,72.02
2023-01-17T04:50:51.152Z,71.56
2023-01-17T04:53:17.807Z,71.30
2023-01-17T04:55:47.279Z,71.12
2023-01-17T04:58:13.962Z,70.33
2023-01-17T05:00:40.617Z,70.67
2023-01-17T05:03:07.250Z,71.34
2023-01-17T05:05:33.873Z,70.71
2023-01-17T05:08:00.509Z,70.38
2023-01-17T05:10:27.135Z,71.12
2023-01-17T05:12:57.063Z,70.18
2023-01-17T05:15:23.805Z,70.33
2023-01-17T05:17:51.484Z,70.41
2023-01-17T05:20:18.589Z,70.49
2023-01-17T05:22:45.218Z,68.07
2023-01-17T05:25:11.896Z,69.52
2023-01-17T05:27:38.533Z,69.89
2023-01-17T05:30:05.698Z,70.44
2023-01-17T05:32:32.341Z,70.03
2023-01-17T05:34:58.953Z,71.05
2023-01-17T05:37:25.610Z,70.81
2023-01-17T05:39:52.231Z,71.22
2023-01-17T05:42:18.884Z,70.68
2023-01-17T05:44:45.533Z,71.03
2023-01-17T05:47:12.173Z,70.45
2023-01-17T05:49:38.825Z,70.18
2023-01-17T05:52:09.230Z,70.14
2023-01-17T05:54:35.852Z,71.21
2023-01-17T05:57:03.001Z,71.47
2023-01-17T05:59:36.860Z,71.30
2023-01-17T06:02:04.176Z,68.89
2023-01-17T06:04:30.805Z,68.68
2023-01-17T06:06:57.507Z,68.17
2023-01-17T06:09:24.529Z,67.29
2023-01-17T06:11:51.221Z,67.82
2023-01-17T06:14:17.927Z,67.66
2023-01-17T06:16:44.553Z,67.91
2023-01-17T06:19:11.158Z,67.75
2023-01-17T06:21:37.866Z,66.54
2023-01-17T06:24:04.715Z,66.54
2023-01-17T06:26:31.343Z,68.15
2023-01-17T06:28:58.000Z,68.62
2023-01-17T06:31:24.712Z,68.65
2023-01-17T06:33:51.361Z,69.54
2023-01-17T06:36:18.009Z,70.55
2023-01-17T06:38:44.651Z,69.54
2023-01-17T06:41:11.296Z,69.48
2023-01-17T06:43:37.959Z,69.56
2023-01-17T06:46:04.608Z,70.40
2023-01-17T06:48:31.340Z,71.00
2023-01-17T06:50:57.990Z,70.32
2023-01-17T06:53:24.643Z,70.20
2023-01-17T06:55:51.297Z,70.45
2023-01-17T06:58:17.933Z,69.58
2023-01-17T07:00:44.593Z,70.78
2023-01-17T07:03:21.928Z,69.44
2023-01-17T07:05:48.595Z,69.47
2023-01-17T07:08:15.305Z,69.97
2023-01-17T07:10:41.921Z,70.46
2023-01-17T07:13:08.535Z,69.93
2023-01-17T07:15:35.209Z,68.73
2023-01-17T07:18:02.363Z,70.00
2023-01-17T07:20:29.042Z,69.76
2023-01-17T07:22:55.705Z,70.28
2023-01-17T07:25:22.346Z,69.97
2023-01-17T07:27:49.083Z,70.47
2023-01-17T07:30:15.964Z,70.75
2023-01-17T07:32:42.610Z,70.27
2023-01-17T07:35:09.393Z,70.51
2023-01-17T07:37:36.033Z,70.08
2023-01-17T07:40:02.674Z,71.14
2023-01-17T07:42:29.339Z,71.11
2023-01-17T07:44:55.987Z,70.47
2023-01-17T07:47:22.640Z,70.45
2023-01-17T07:49:49.296Z,71.02
2023-01-17T07:52:18.218Z,69.98
2023-01-17T07:54:45.210Z,70.62
2023-01-17T07:57:12.217Z,71.20
2023-01-17T07:59:38.862Z,70.97
2023-01-17T08:02:05.557Z,71.46
2023-01-17T08:04:32.217Z,70.46
2023-01-17T08:06:58.865Z,71.64
2023-01-17T08:09:25.498Z,71.22
2023-01-17T08:11:52.124Z,71.49
2023-01-17T08:14:18.767Z,72.17
2023-01-17T08:16:45.409Z,71.29
2023-01-17T08:19:12.072Z,71.90
2023-01-17T08:21:38.726Z,70.78
2023-01-17T08:24:05.629Z,71.06
2023-01-17T08:26:32.278Z,70.82
2023-01-17T08:28:59.100Z,70.73
2023-01-17T08:31:26.702Z,71.85
2023-01-17T08:33:53.377Z,72.15
2023-01-17T08:36:20.137Z,72.08
2023-01-17T08:38:46.829Z,71.78
2023-01-17T08:41:13.504Z,72.17
2023-01-17T08:43:40.155Z,71.69
2023-01-17T08:46:06.783Z,71.53
2023-01-17T08:48:33.418Z,70.38
2023-01-17T08:51:01.423Z,72.12
2023-01-17T08:53:28.433Z,72.96
2023-01-17T08:56:01.363Z,72.99
2023-01-17T08:58:30.429Z,73.04
2023-01-17T09:01:01.989Z,73.63
2023-01-17T09:03:29.080Z,73.02
2023-01-17T09:06:02.667Z,73.48
2023-01-17T09:08:29.358Z,73.25
2023-01-17T09:10:56.097Z,74.41
2023-01-17T09:13:22.775Z,75.01
2023-01-17T09:15:49.464Z,75.48
2023-01-17T09:18:16.242Z,75.87
2023-01-17T09:20:42.932Z,75.63
2023-01-17T09:23:09.581Z,75.37
2023-01-17T09:25:36.241Z,75.99
2023-01-17T09:28:02.871Z,75.67
2023-01-17T09:30:29.550Z,76.01
2023-01-17T09:32:56.572Z,76.86
2023-01-17T09:35:23.225Z,77.55
2023-01-17T09:37:52.863Z,77.25
2023-01-17T09:40:21.551Z,77.01
2023-01-17T09:42:50.368Z,76.56
2023-01-17T09:45:17.991Z,75.98
2023-01-17T09:47:46.248Z,75.88
2023-01-17T09:50:22.776Z,75.49
2023-01-17T09:52:49.447Z,74.57
2023-01-17T09:55:16.591Z,74.87
2023-01-17T09:58:02.937Z,74.34
2023-01-17T10:00:47.184Z,74.76
2023-01-17T10:03:46.371Z,75.07
2023-01-17T10:06:23.747Z,74.24
2023-01-17T10:09:05.692Z,74.39
2023-01-17T10:11:38.233Z,74.55
2023-01-17T10:14:10.822Z,74.13
2023-01-17T10:16:44.346Z,74.39
2023-01-17T10:19:16.602Z,73.91
2023-01-17T10:21:59.170Z,74.02
2023-01-17T10:24:51.150Z,73.81
2023-01-17T10:27:34.990Z,74.10
2023-01-17T10:30:02.716Z,73.15
2023-01-17T10:32:29.647Z,73.31
2023-01-17T10:34:56.287Z,72.86
2023-01-17T10:37:39.804Z,72.71
2023-01-17T10:40:29.285Z,73.32
2023-01-17T10:43:23.796Z,72.17
2023-01-17T10:45:55.296Z,72.78
2023-01-17T10:48:45.157Z,72.26
2023-01-17T10:51:20.662Z,72.25
2023-01-17T10:53:55.370Z,73.35
2023-01-17T10:56:23.441Z,73.11
2023-01-17T10:58:50.072Z,72.25
2023-01-17T11:01:20.344Z,71.41
2023-01-17T11:03:50.686Z,71.97
2023-01-17T11:06:24.542Z,71.33
2023-01-17T11:08:54.803Z,71.73
2023-01-17T11:11:25.629Z,70.78
2023-01-17T11:13:53.173Z,70.35
2023-01-17T11:16:24.213Z,70.46
2023-01-17T11:19:08.162Z,71.21
2023-01-17T11:21:35.132Z,72.00
2023-01-17T11:24:09.581Z,72.66
2023-01-17T11:26:36.526Z,71.78
2023-01-17T11:29:32.278Z,70.56
2023-01-17T11:32:30.460Z,70.70
2023-01-17T11:35:15.076Z,69.71
2023-01-17T11:37:48.212Z,70.47
2023-01-17T11:40:21.211Z,71.33
2023-01-17T11:42:47.846Z,72.10
2023-01-17T11:45:25.508Z,72.17
2023-01-17T11:48:15.997Z,71.65
2023-01-17T11:50:47.108Z,71.61
2023-01-17T11:53:21.751Z,72.76
2023-01-17T11:56:15.447Z,73.21
2023-01-17T11:58:42.096Z,73.04
2023-01-17T12:01:28.530Z,73.91
2023-01-17T12:04:10.421Z,73.10
2023-01-17T12:06:57.119Z,74.83
2023-01-17T12:09:40.537Z,76.02
2023-01-17T12:12:13.357Z,75.89
2023-01-17T12:14:54.266Z,76.15
2023-01-17T12:17:58.416Z,75.96
2023-01-17T12:20:35.727Z,76.10
2023-01-17T12:23:02.262Z,75.47
2023-01-17T12:25:50.593Z,74.75
2023-01-17T12:28:30.938Z,74.46
2023-01-17T12:31:33.563Z,73.22
2023-01-17T12:34:23.680Z,73.07
2023-01-17T12:36:55.109Z,74.12
2023-01-17T12:39:25.533Z,75.52
2023-01-17T12:42:18.009Z,76.13
2023-01-17T12:44:50.209Z,76.61
2023-01-17T12:47:16.997Z,78.22
2023-01-17T12:50:20.877Z,79.21
2023-01-17T12:53:22.261Z,79.49
2023-01-17T12:55:50.340Z,79.26
2023-01-17T12:58:25.320Z,79.16
2023-01-17T13:01:22.244Z,78.20
2023-01-17T13:04:18.484Z,77.20
2023-01-17T13:07:02.258Z,76.47
2023-01-17T13:09:35.415Z,76.34
2023-01-17T13:12:04.793Z,76.37
2023-01-17T13:14:31.456Z,76.28
2023-01-17T13:16:59.454Z,76.16
2023-01-17T13:19:31.254Z,75.50
2023-01-17T13:21:57.894Z,75.69
2023-01-17T13:24:42.336Z,75.30
2023-01-17T13:27:21.408Z,74.29
2023-01-17T13:29:56.805Z,75.30
2023-01-17T13:32:43.022Z,75.33
2023-01-17T13:35:14.036Z,75.58
2023-01-17T13:38:05.903Z,75.37
2023-01-17T13:41:03.750Z,76.34
2023-01-17T13:43:38.396Z,75.38
2023-01-17T13:46:05.229Z,75.60
2023-01-17T13:48:33.736Z,74.65
2023-01-17T13:51:01.066Z,73.91
2023-01-17T13:53:36.908Z,73.82
2023-01-17T13:56:13.077Z,73.32
2023-01-17T13:58:45.686Z,74.67
2023-01-17T14:01:12.595Z,73.83
2023-01-17T14:03:51.321Z,73.72
2023-01-17T14:06:34.045Z,74.07
2023-01-17T14:09:13.937Z,74.82
2023-01-17T14:12:00.635Z,74.57
2023-01-17T14:14:42.279Z,73.76
2023-01-17T14:17:17.898Z,75.10
2023-01-17T14:19:48.324Z,74.89
2023-01-17T14:22:21.239Z,74.32
2023-01-17T14:25:09.485Z,76.08
2023-01-17T14:28:03.044Z,74.68
2023-01-17T14:30:34.500Z,75.57
2023-01-17T14:33:15.480Z,74.29
2023-01-17T14:35:56.473Z,74.18
2023-01-17T14:38:26.981Z,75.00
2023-01-17T14:40:57.956Z,75.21
2023-01-17T14:43:25.761Z,74.85
2023-01-17T14:45:59.093Z,74.99
2023-01-17T14:48:26.010Z,75.40
2023-01-17T14:50:53.977Z,75.69
2023-01-17T14:53:38.782Z,75.39
2023-01-17T14:56:16.801Z,73.95
2023-01-17T14:58:43.427Z,74.78
2023-01-17T15:01:20.210Z,75.05
2023-01-17T15:03:51.855Z,75.34
2023-01-17T15:06:19.001Z,74.61
2023-01-17T15:08:45.667Z,74.34
2023-01-17T15:11:18.600Z,75.35
2023-01-17T15:13:47.167Z,75.90
2023-01-17T15:16:20.828Z,75.74
2023-01-17T15:18:47.554Z,78.27
2023-01-17T15:21:18.775Z,78.20
2023-01-17T15:23:48.318Z,77.10
2023-01-17T15:26:16.702Z,77.04
2023-01-17T15:28:43.638Z,76.39
2023-01-17T15:31:12.778Z,76.30
2023-01-17T15:33:41.781Z,75.84
2023-01-17T15:36:25.206Z,75.67
2023-01-17T15:38:58.668Z,75.46
2023-01-17T15:41:26.883Z,75.35
2023-01-17T15:43:53.548Z,75.47
2023-01-17T15:46:24.249Z,75.26
2023-01-17T15:48:50.951Z,75.32
2023-01-17T15:51:30.511Z,77.52
2023-01-17T15:53:57.164Z,77.79
2023-01-17T15:56:26.626Z,78.01
2023-01-17T15:58:53.375Z,77.36
2023-01-17T16:01:26.021Z,77.20
2023-01-17T16:03:54.185Z,78.46
2023-01-17T16:06:36.486Z,77.98
2023-01-17T16:09:03.129Z,79.85
2023-01-17T16:11:29.894Z,79.23
2023-01-17T16:13:56.533Z,79.88
2023-01-17T16:16:23.752Z,80.07
2023-01-17T16:18:56.513Z,80.29
2023-01-17T16:21:27.823Z,79.84
2023-01-17T16:23:54.490Z,78.84
2023-01-17T16:26:21.153Z,78.39
2023-01-17T16:28:47.762Z,78.35
2023-01-17T16:31:14.544Z,76.99
2023-01-17T16:33:41.190Z,76.77
2023-01-17T16:36:14.222Z,76.90
2023-01-17T16:38:41.090Z,77.09
2023-01-17T16:41:07.731Z,76.89
2023-01-17T16:43:34.353Z,76.85
2023-01-17T16:46:01.035Z,76.97
2023-01-17T16:48:27.703Z,77.18
2023-01-17T16:50:54.321Z,77.32
2023-01-17T16:53:25.416Z,76.91
2023-01-17T16:55:53.970Z,77.90
2023-01-17T16:58:20.596Z,77.43
2023-01-17T17:00:47.924Z,78.91
2023-01-17T17:03:18.489Z,80.01
2023-01-17T17:05:45.237Z,81.09
2023-01-17T17:08:11.865Z,82.81
2023-01-17T17:10:38.500Z,83.50
2023-01-17T17:13:05.201Z,81.55
2023-01-17T17:15:31.911Z,81.35
2023-01-17T17:17:58.549Z,81.62
2023-01-17T17:20:25.354Z,81.62
2023-01-17T17:22:52.070Z,82.28
2023-01-17T17:25:18.751Z,82.51
2023-01-17T17:27:45.401Z,81.27
2023-01-17T17:30:12.154Z,81.25
2023-01-17T17:32:38.967Z,81.42
2023-01-17T17:35:05.964Z,82.01
2023-01-17T17:37:32.724Z,82.58
2023-01-17T17:39:59.768Z,83.52
2023-01-17T17:42:26.414Z,84.68
2023-01-17T17:44:53.068Z,85.52
2023-01-17T17:47:19.747Z,85.16
2023-01-17T17:49:46.435Z,85.77
2023-01-17T17:52:13.107Z,85.59
2023-01-17T17:54:39.774Z,85.26
2023-01-17T17:57:06.445Z,84.22
2023-01-17T17:59:33.119Z,83.51
2023-01-17T18:01:59.908Z,84.50
2023-01-17T18:04:26.647Z,85.56
2023-01-17T18:06:56.677Z,85.94
2023-01-17T18:09:23.385Z,85.71
2023-01-17T18:11:50.019Z,84.86
2023-01-17T18:14:16.731Z,84.33
2023-01-17T18:16:43.735Z,84.12
2023-01-17T18:19:15.339Z,83.72
2023-01-17T18:21:42.288Z,83.29
2023-01-17T18:24:13.457Z,82.54
2023-01-17T18:26:41.023Z,81.49
2023-01-17T18:29:08.491Z,83.71
2023-01-17T18:31:35.285Z,84.90
2023-01-17T18:34:07.028Z,85.41
2023-01-17T18:36:33.680Z,84.95
2023-01-17T18:39:00.592Z,85.46
2023-01-17T18:41:28.769Z,84.57
2023-01-17T18:43:55.531Z,84.36
2023-01-17T18:46:22.626Z,83.13
2023-01-17T18:48:49.281Z,83.03
2023-01-17T18:51:17.173Z,83.48
2023-01-17T18:53:44.694Z,83.69
2023-01-17T18:56:21.287Z,82.29
2023-01-17T18:58:48.714Z,82.65
2023-01-17T19:01:16.294Z,84.03
2023-01-17T19:03:44.562Z,84.80
2023-01-17T19:06:12.378Z,84.39
2023-01-17T19:08:39.019Z,82.99
2023-01-17T19:11:05.786Z,82.88
2023-01-17T19:13:32.979Z,82.32
2023-01-17T19:16:00.865Z,81.89
2023-01-17T19:18:27.546Z,81.10
2023-01-17T19:20:54.209Z,80.78
2023-01-17T19:23:20.868Z,81.32
2023-01-17T19:25:52.918Z,80.59
2023-01-17T19:28:19.563Z,80.65
2023-01-17T19:30:46.347Z,80.46
2023-01-17T19:33:13.001Z,79.60
2023-01-17T19:35:39.677Z,79.69
2023-01-17T19:38:06.338Z,79.20
2023-01-17T19:40:33.019Z,78.55
2023-01-17T19:42:59.650Z,79.14
2023-01-17T19:45:26.414Z,78.08
2023-01-17T19:47:53.215Z,79.17
2023-01-17T19:50:19.865Z,78.98
2023-01-17T19:52:46.588Z,78.69
2023-01-17T19:55:13.279Z,77.45
2023-01-17T19:57:39.909Z,78.39
2023-01-17T20:00:10.116Z,79.19
2023-01-17T20:02:37.909Z,78.21
2023-01-17T20:05:05.332Z,77.61
2023-01-17T20:07:31.952Z,78.66
2023-01-17T20:09:58.604Z,79.12
2023-01-17T20:12:25.341Z,78.93
2023-01-17T20:14:51.975Z,79.21
2023-01-17T20:17:18.677Z,79.49
2023-01-17T20:19:45.532Z,78.18
2023-01-17T20:22:12.326Z,79.18
2023-01-17T20:24:38.981Z,79.57
2023-01-17T20:27:05.636Z,79.67
2023-01-17T20:29:32.272Z,78.33
2023-01-17T20:31:58.961Z,78.19
2023-01-17T20:34:25.640Z,80.32
2023-01-17T20:36:54.221Z,79.49
2023-01-17T20:39:20.868Z,79.93
2023-01-17T20:41:47.619Z,80.18
2023-01-17T20:44:14.691Z,79.97
2023-01-17T20:46:41.467Z,78.45
2023-01-17T20:49:16.468Z,76.12
2023-01-17T20:51:43.800Z,79.22
2023-01-17T20:54:14.415Z,78.30
2023-01-17T20:56:41.057Z,79.08
2023-01-17T20:59:08.636Z,78.63
2023-01-17T21:01:36.192Z,78.02
2023-01-17T21:04:03.560Z,78.50
2023-01-17T21:06:30.181Z,78.57
2023-01-17T21:08:56.806Z,77.70
2023-01-17T21:11:24.829Z,77.69
2023-01-17T21:13:51.589Z,78.07
2023-01-17T21:16:19.115Z,79.21
2023-01-17T21:18:46.916Z,78.04
2023-01-17T21:21:20.956Z,78.50
2023-01-17T21:23:47.695Z,78.13
2023-01-17T21:26:14.975Z,79.29
2023-01-17T21:28:42.528Z,79.49
2023-01-17T21:31:09.495Z,80.27
2023-01-17T21:33:36.182Z,81.21
2023-01-17T21:36:06.476Z,80.16
2023-01-17T21:38:33.139Z,81.58
2023-01-17T21:40:59.795Z,81.54
2023-01-17T21:43:26.443Z,81.74
2023-01-17T21:45:53.088Z,81.89
2023-01-17T21:48:19.745Z,81.53
2023-01-17T21:50:46.382Z,82.38
2023-01-17T21:53:13.036Z,82.54
2023-01-17T21:55:39.708Z,83.30
2023-01-17T21:58:13.016Z,84.06
2023-01-17T22:00:42.695Z,84.81
2023-01-17T22:03:09.309Z,84.97
2023-01-17T22:05:35.939Z,84.64
2023-01-17T22:08:02.753Z,85.95
2023-01-17T22:10:29.413Z,85.53
2023-01-17T22:12:56.084Z,85.69
2023-01-17T22:15:22.812Z,85.48
2023-01-17T22:17:49.457Z,84.46
2023-01-17T22:20:16.312Z,84.40
2023-01-17T22:22:42.987Z,82.76
2023-01-17T22:25:09.862Z,82.66
2023-01-17T22:27:36.501Z,82.04
2023-01-17T22:30:03.129Z,82.02
2023-01-17T22:32:29.768Z,81.23
2023-01-17T22:34:56.445Z,81.53
2023-01-17T22:37:23.119Z,81.01
2023-01-17T22:39:49.761Z,80.93
2023-01-17T22:42:16.388Z,80.32
2023-01-17T22:44:43.096Z,78.33
2023-01-17T22:47:09.706Z,80.82
2023-01-17T22:49:36.338Z,82.49
2023-01-17T22:52:02.990Z,83.59
2023-01-17T22:54:29.618Z,84.74
2023-01-17T22:56:56.270Z,85.03
2023-01-17T22:59:22.911Z,84.65
2023-01-17T23:01:49.608Z,83.62
2023-01-17T23:04:16.240Z,82.54
2023-01-17T23:06:43.004Z,83.37
2023-01-17T23:09:14.362Z,82.62
2023-01-17T23:11:45.040Z,82.14
2023-01-17T23:14:12.700Z,80.69
2023-01-17T23:16:50.775Z,81.97
2023-01-17T23:19:17.437Z,81.23
2023-01-17T23:21:44.072Z,83.18
2023-01-17T23:24:10.727Z,83.47
2023-01-17T23:26:37.377Z,84.27
2023-01-17T23:29:04.002Z,84.10
2023-01-17T23:31:30.684Z,84.73
2023-01-17T23:33:57.362Z,84.36
2023-01-17T23:36:23.991Z,85.47
2023-01-17T23:38:50.617Z,85.01
2023-01-17T23:41:17.269Z,85.79
2023-01-17T23:43:43.930Z,85.62
2023-01-17T23:46:13.328Z,85.46
2023-01-17T23:48:40.085Z,86.34
2023-01-17T23:51:06.769Z,86.20
2023-01-17T23:53:34.156Z,85.52
2023-01-17T23:56:07.689Z,84.51
2023-01-17T23:58:34.338Z,84.67
